Time;durP1;ratioP1;P1;durP2;ratioP2;P2;SDS_P1;SDS_P2;PMS_P1;PMS_P2;Temp;Humidity;BMP_temperature;BMP_pressure;BME280_temperature;BME280_humidity;BME280_pressure;Samples;Min_cycle;Max_cycle;Signal;HPM_P1;HPM_P2
2023/03/25 00:02:20;;;;;;;5.93;1.50;;;;;;;8.74;91.03;99933.53;5041356;28;20529;-49
2023/03/25 00:04:50;;;;;;;5.53;1.65;;;;;;;8.83;89.95;99924.63;5055985;28;20037;-48
2023/03/25 00:07:18;;;;;;;5.72;1.67;;;;;;;8.82;91.55;99928.28;5042591;28;20108;-49
2023/03/25 00:09:46;;;;;;;4.65;1.70;;;;;;;8.82;89.96;99923.00;5047733;28;20044;-50
2023/03/25 00:12:15;;;;;;;3.45;1.27;;;;;;;8.82;89.66;99920.34;5031308;28;20045;-49
2023/03/25 00:14:53;;;;;;;7.60;1.70;;;;;;;8.87;89.27;99919.03;5034865;28;20044;-49
2023/03/25 00:17:21;;;;;;;5.55;1.50;;;;;;;8.98;89.30;99921.34;5046502;28;20041;-48
2023/03/25 00:19:49;;;;;;;6.97;1.80;;;;;;;8.90;88.90;99916.88;5055789;28;20454;-48
2023/03/25 00:22:17;;;;;;;9.93;1.75;;;;;;;8.81;89.89;99916.03;5055308;28;20106;-49
2023/03/25 00:24:44;;;;;;;6.75;1.80;;;;;;;8.93;88.35;99913.06;5051247;28;20099;-51
2023/03/25 00:27:13;;;;;;;8.32;1.88;;;;;;;8.79;90.26;99915.38;5048945;28;20132;-49
2023/03/25 00:29:41;;;;;;;6.32;1.60;;;;;;;8.84;88.92;99909.59;5042046;28;20081;-48
2023/03/25 00:32:07;;;;;;;13.88;1.85;;;;;;;8.93;88.47;99913.06;5044669;28;20048;-51
2023/03/25 00:34:40;;;;;;;8.63;2.00;;;;;;;8.79;88.55;99912.72;5035106;28;20037;-51
2023/03/25 00:37:08;;;;;;;8.95;1.80;;;;;;;8.81;88.37;99921.31;5047196;28;20521;-50
2023/03/25 00:39:36;;;;;;;11.07;1.95;;;;;;;8.80;89.12;99911.75;5031822;28;20096;-51
2023/03/25 00:42:04;;;;;;;9.23;1.55;;;;;;;8.82;88.89;99907.13;5034742;28;20410;-51
2023/03/25 00:44:31;;;;;;;6.97;1.75;;;;;;;8.85;89.38;99913.91;5038449;28;20526;-48
2023/03/25 00:46:58;;;;;;;7.30;1.70;;;;;;;8.92;87.69;99904.31;5037019;28;20045;-52
2023/03/25 00:49:27;;;;;;;6.93;1.50;;;;;;;8.97;87.19;99901.19;5027869;28;20065;-49
2023/03/25 00:51:55;;;;;;;11.93;1.92;;;;;;;8.92;86.42;99906.16;5046725;28;20099;-48
2023/03/25 00:54:22;;;;;;;7.85;1.73;;;;;;;8.95;86.99;99908.44;5035069;28;20050;-49
2023/03/25 00:56:51;;;;;;;8.25;1.73;;;;;;;9.01;85.77;99911.28;5045098;28;20059;-50
2023/03/25 00:59:18;;;;;;;14.38;1.85;;;;;;;8.89;88.43;99906.47;5054786;28;20072;-50
2023/03/25 01:01:45;;;;;;;7.93;1.90;;;;;;;9.02;86.06;99904.16;5050523;28;20409;-49
2023/03/25 01:04:15;;;;;;;8.38;1.52;;;;;;;8.88;85.76;99908.28;5054654;28;20041;-49
2023/03/25 01:06:43;;;;;;;4.88;1.50;;;;;;;9.04;84.91;99904.84;5039839;28;20045;-51
2023/03/25 01:09:12;;;;;;;8.45;2.15;;;;;;;9.09;84.69;99902.50;5039643;28;20078;-51
2023/03/25 01:11:43;;;;;;;13.18;1.90;;;;;;;9.08;83.81;99907.94;5030587;28;20096;-48
2023/03/25 01:14:14;;;;;;;13.80;2.25;;;;;;;9.01;84.18;99907.81;5034218;28;20045;-51
2023/03/25 01:16:42;;;;;;;7.47;1.70;;;;;;;9.02;83.97;99905.00;5031489;28;20275;-52
2023/03/25 01:19:10;;;;;;;10.80;1.95;;;;;;;9.06;83.21;99908.16;5054105;28;20045;-48
2023/03/25 01:21:37;;;;;;;7.32;1.60;;;;;;;8.96;82.98;99902.19;5044405;28;20041;-49
2023/03/25 01:24:05;;;;;;;10.57;1.90;;;;;;;9.08;83.01;99903.50;5040381;28;20046;-50
2023/03/25 01:26:32;;;;;;;9.65;1.95;;;;;;;9.01;82.47;99905.97;5037172;28;20095;-49
2023/03/25 01:29:00;;;;;;;9.05;1.65;;;;;;;9.11;82.06;99902.34;5051037;28;20075;-49
2023/03/25 01:31:28;;;;;;;8.73;1.50;;;;;;;9.15;81.57;99912.44;5054266;28;20041;-48
2023/03/25 01:33:57;;;;;;;9.40;2.08;;;;;;;9.02;81.50;99907.66;5049569;28;20402;-52
2023/03/25 01:36:28;;;;;;;9.65;1.52;;;;;;;9.01;80.77;99898.03;5053169;28;20511;-47
2023/03/25 01:38:57;;;;;;;8.15;1.58;;;;;;;8.95;82.49;99901.34;5038378;28;20098;-51
2023/03/25 01:41:26;;;;;;;10.10;1.50;;;;;;;8.95;82.22;99900.50;5033774;28;20053;-51
2023/03/25 01:47:02;;;;;;;10.35;1.63;;;;;;;9.05;82.07;99895.06;5130028;27;20433;-49
2023/03/25 01:49:38;;;;;;;6.30;1.33;;;;;;;9.07;81.68;99893.91;5105058;28;20093;-49
2023/03/25 01:52:10;;;;;;;11.25;1.83;;;;;;;9.02;81.08;99896.22;5110986;28;20050;-46
2023/03/25 01:54:39;;;;;;;15.45;1.83;;;;;;;8.95;81.81;99896.06;5099350;28;20047;-46
2023/03/25 01:57:07;;;;;;;4.38;1.30;;;;;;;8.87;82.50;99888.09;5098896;28;20035;-46
2023/03/25 01:59:36;;;;;;;8.07;1.48;;;;;;;9.03;81.84;99893.41;5106841;28;20129;-48
2023/03/25 02:02:07;;;;;;;9.18;2.20;;;;;;;8.99;82.02;99884.16;5090581;28;20048;-49
2023/03/25 02:04:42;;;;;;;7.45;1.50;;;;;;;8.96;82.41;99888.94;5106380;28;20071;-48
2023/03/25 02:07:11;;;;;;;9.68;2.10;;;;;;;8.99;82.57;99884.16;5109081;28;20040;-50
2023/03/25 02:09:38;;;;;;;6.03;1.48;;;;;;;8.99;83.11;99888.63;5103287;28;20074;-48
2023/03/25 02:12:06;;;;;;;6.90;1.40;;;;;;;9.07;81.52;99887.78;5104124;28;20074;-51
2023/03/25 02:14:36;;;;;;;7.75;1.50;;;;;;;9.03;81.63;99882.81;5097876;28;20044;-48
2023/03/25 02:17:44;;;;;;;4.53;1.40;;;;;;;9.07;81.80;99880.69;5104635;28;20051;-48
2023/03/25 02:20:48;;;;;;;4.97;1.33;;;;;;;9.01;81.15;99889.28;5091754;28;20044;-52
2023/03/25 02:23:45;;;;;;;6.30;1.40;;;;;;;9.06;81.61;99894.91;5103373;28;20078;-48
2023/03/25 02:26:35;;;;;;;8.55;1.30;;;;;;;8.95;81.42;99893.41;5109389;28;20119;-52
2023/03/25 02:29:23;;;;;;;8.05;1.35;;;;;;;8.90;81.52;99902.84;5105885;28;20105;-49
2023/03/25 02:32:14;;;;;;;6.07;1.40;;;;;;;8.87;83.07;99895.22;5102230;28;20374;-49
2023/03/25 02:35:21;;;;;;;5.90;1.45;;;;;;;8.89;81.52;99898.53;5105304;28;20092;-48
2023/03/25 02:38:16;;;;;;;4.13;1.08;;;;;;;8.81;81.28;99894.06;5098535;28;20032;-52
2023/03/25 02:40:57;;;;;;;5.03;1.30;;;;;;;8.80;82.68;99890.59;5087837;28;20509;-51
2023/03/25 02:43:31;;;;;;;6.10;1.40;;;;;;;8.91;81.83;99900.00;5094819;28;20044;-48
2023/03/25 02:46:03;;;;;;;6.85;1.40;;;;;;;8.83;81.30;99897.38;5094895;28;20048;-48
2023/03/25 02:48:36;;;;;;;5.57;1.30;;;;;;;8.83;81.55;99900.00;5066020;28;20144;-49
2023/03/25 02:51:11;;;;;;;4.93;1.40;;;;;;;8.76;82.19;99891.91;5067992;28;20110;-51
2023/03/25 02:53:42;;;;;;;5.88;1.38;;;;;;;8.81;82.44;99899.34;5080198;28;20421;-51
2023/03/25 02:56:14;;;;;;;9.10;1.70;;;;;;;8.77;82.68;99890.91;5088004;28;20124;-52
2023/03/25 02:58:44;;;;;;;5.13;1.63;;;;;;;8.82;81.90;99899.19;5069838;28;20578;-50
2023/03/25 03:01:13;;;;;;;9.90;1.65;;;;;;;8.71;83.25;99891.53;5070886;28;20045;-49
2023/03/25 03:03:41;;;;;;;6.60;1.50;;;;;;;8.71;82.80;99888.91;5050612;28;20144;-52
2023/03/25 03:06:16;;;;;;;10.30;2.20;;;;;;;8.65;83.92;99890.38;5062868;28;20131;-48
2023/03/25 03:08:50;;;;;;;7.35;1.63;;;;;;;8.69;83.54;99882.97;5073282;28;20540;-51
2023/03/25 03:11:24;;;;;;;8.80;1.83;;;;;;;8.79;83.31;99882.81;5050706;28;20045;-48
2023/03/25 03:14:24;;;;;;;6.93;1.58;;;;;;;8.72;83.51;99887.09;5072341;28;20383;-48
2023/03/25 03:17:17;;;;;;;9.90;1.75;;;;;;;8.63;84.83;99873.84;5068378;28;20048;-48
2023/03/25 03:20:12;;;;;;;6.10;1.60;;;;;;;8.65;84.61;99874.50;5069625;28;20127;-48
2023/03/25 03:22:51;;;;;;;9.38;1.98;;;;;;;8.55;84.81;99876.50;5060912;28;20094;-49
2023/03/25 03:25:32;;;;;;;5.20;1.40;;;;;;;8.67;84.23;99868.25;5074548;28;20474;-49
2023/03/25 03:28:07;;;;;;;9.57;1.65;;;;;;;8.68;84.27;99872.53;5069757;28;20098;-51
2023/03/25 03:30:48;;;;;;;9.55;1.80;;;;;;;8.76;85.26;99881.31;5074410;28;20048;-49
2023/03/25 03:33:24;;;;;;;11.38;2.25;;;;;;;8.77;85.01;99882.16;5066433;28;20502;-48
2023/03/25 03:36:00;;;;;;;8.52;2.08;;;;;;;8.75;84.67;99878.81;5072298;28;20056;-47
2023/03/25 03:38:34;;;;;;;9.70;1.85;;;;;;;8.68;84.25;99873.38;5062385;28;20136;-48
2023/03/25 03:41:07;;;;;;;14.00;2.00;;;;;;;8.85;84.01;99874.22;5073607;28;20051;-47
2023/03/25 03:43:40;;;;;;;10.73;2.03;;;;;;;8.84;82.77;99877.84;5069518;28;20663;-50
2023/03/25 03:46:20;;;;;;;10.88;2.00;;;;;;;8.78;82.41;99879.34;5073795;28;20075;-50
2023/03/25 03:48:52;;;;;;;13.18;2.22;;;;;;;8.68;83.42;99876.03;5070057;28;20083;-47
2023/03/25 03:51:28;;;;;;;11.80;1.83;;;;;;;8.65;83.92;99881.63;5070458;28;20123;-50
2023/03/25 03:54:01;;;;;;;10.35;2.03;;;;;;;8.60;84.44;99886.56;5069314;28;20048;-48
2023/03/25 03:56:35;;;;;;;8.80;2.00;;;;;;;8.69;84.46;99887.41;5043759;28;20036;-50
2023/03/25 03:59:12;;;;;;;13.38;2.10;;;;;;;8.52;85.61;99881.28;5072959;28;20055;-48
2023/03/25 04:01:44;;;;;;;10.27;2.00;;;;;;;8.50;86.12;99884.09;5050099;28;20053;-49
2023/03/25 04:04:15;;;;;;;;;;;;;;;8.50;86.19;99881.44;5074811;28;20072;-47
2023/03/25 04:06:55;;;;;;;10.15;1.70;;;;;;;8.61;85.44;99880.31;5065130;28;20377;-47
2023/03/25 04:09:40;;;;;;;8.02;1.88;;;;;;;8.49;85.88;99874.47;5066630;28;20048;-48
2023/03/25 04:12:16;;;;;;;11.07;2.10;;;;;;;8.52;85.47;99879.47;5050940;28;20040;-48
2023/03/25 04:14:43;;;;;;;7.50;1.73;;;;;;;8.57;84.54;99879.00;5073204;28;20052;-49
2023/03/25 04:17:11;;;;;;;12.65;2.10;;;;;;;8.54;84.56;99866.91;5068277;28;20494;-50
2023/03/25 04:19:38;;;;;;;13.15;1.77;;;;;;;8.57;83.98;99871.88;5073710;28;20036;-51
2023/03/25 04:22:05;;;;;;;8.43;1.70;;;;;;;8.59;83.90;99877.81;5069251;28;20071;-48
2023/03/25 04:24:32;;;;;;;10.43;1.90;;;;;;;8.62;83.29;99888.09;5066436;28;20049;-50
2023/03/25 04:27:03;;;;;;;7.68;1.70;;;;;;;8.50;84.19;99885.91;5069679;28;20082;-50
2023/03/25 04:29:30;;;;;;;13.15;2.10;;;;;;;8.55;82.73;99884.44;5068866;28;20040;-48
2023/03/25 04:31:59;;;;;;;11.40;1.80;;;;;;;8.54;82.64;99877.47;5073648;28;20102;-50
2023/03/25 04:34:27;;;;;;;10.45;2.20;;;;;;;8.60;82.18;99881.28;5068431;28;20047;-52
2023/03/25 04:36:54;;;;;;;7.30;1.60;;;;;;;8.62;81.84;99882.78;5072513;28;20083;-48
2023/03/25 04:39:22;;;;;;;13.85;2.35;;;;;;;8.68;81.54;99880.47;5051897;28;20155;-49
2023/03/25 04:41:49;;;;;;;11.40;1.77;;;;;;;8.72;80.09;99885.28;5063037;28;20036;-51
2023/03/25 04:44:16;;;;;;;14.23;2.08;;;;;;;8.79;80.15;99888.13;5047847;28;20128;-51
2023/03/25 04:46:43;;;;;;;6.78;1.65;;;;;;;8.79;79.87;99881.00;5086401;28;20075;-49
2023/03/25 04:49:18;;;;;;;7.18;1.65;;;;;;;8.81;79.18;99881.66;5088294;28;20452;-49
2023/03/25 04:51:44;;;;;;;13.80;1.70;;;;;;;8.74;79.33;99890.41;5093639;28;20634;-51
2023/03/25 04:54:11;;;;;;;12.15;1.77;;;;;;;8.80;78.54;99884.47;5087469;28;20095;-49
2023/03/25 04:56:39;;;;;;;9.90;1.92;;;;;;;8.73;78.58;99883.47;5083128;28;20048;-51
2023/03/25 04:59:05;;;;;;;8.60;1.77;;;;;;;8.86;78.70;99877.69;5089493;28;20090;-49
2023/03/25 05:01:36;;;;;;;7.13;1.75;;;;;;;8.75;78.93;99878.81;5087747;28;20515;-51
2023/03/25 05:04:05;;;;;;;9.80;1.52;;;;;;;8.75;79.94;99871.75;5093000;28;20052;-50
2023/03/25 05:06:33;;;;;;;8.35;1.70;;;;;;;8.70;81.35;99873.22;5087459;28;20042;-50
2023/03/25 05:09:03;;;;;;;16.60;3.05;;;;;;;8.56;83.64;99879.97;5093674;28;20043;-52
2023/03/25 05:11:32;;;;;;;10.35;1.73;;;;;;;8.62;85.41;99874.00;5088438;28;20052;-48
2023/03/25 05:13:59;;;;;;;7.50;1.67;;;;;;;8.60;84.51;99891.84;5087136;28;20055;-51
2023/03/25 05:16:26;;;;;;;12.93;2.00;;;;;;;8.63;86.39;99881.78;5083005;28;20109;-50
2023/03/25 05:18:53;;;;;;;14.40;1.92;;;;;;;8.53;85.18;99875.00;5087374;28;20521;-51
2023/03/25 05:21:20;;;;;;;15.55;2.05;;;;;;;8.51;84.09;99890.19;5092893;28;20513;-49
2023/03/25 05:23:48;;;;;;;9.43;1.70;;;;;;;8.58;84.20;99899.13;5088028;28;20109;-49
2023/03/25 05:26:14;;;;;;;8.63;1.70;;;;;;;8.61;85.42;99893.53;5092303;28;20447;-51
2023/03/25 05:28:41;;;;;;;12.15;1.80;;;;;;;8.62;86.14;99893.38;5085238;28;20059;-50
2023/03/25 05:31:08;;;;;;;13.10;2.20;;;;;;;8.56;86.86;99895.81;5089043;28;20086;-52
2023/03/25 05:33:45;;;;;;;12.90;2.20;;;;;;;8.50;86.47;99892.00;5077811;28;20478;-51
2023/03/25 05:36:13;;;;;;;15.80;2.08;;;;;;;8.51;84.51;99893.66;5092747;28;20040;-50
2023/03/25 05:38:40;;;;;;;12.82;1.80;;;;;;;8.44;86.56;99893.50;5088083;28;20109;-49
2023/03/25 05:41:10;;;;;;;16.13;2.17;;;;;;;8.44;85.10;99898.78;5092056;28;20044;-48
2023/03/25 05:43:37;;;;;;;11.18;1.50;;;;;;;8.67;84.42;99897.34;5087860;28;20919;-51
2023/03/25 05:46:04;;;;;;;14.45;2.03;;;;;;;8.48;84.92;99891.34;5085612;28;20072;-49
2023/03/25 05:48:31;;;;;;;7.82;1.70;;;;;;;8.56;83.33;99894.00;5080085;28;20048;-48
2023/03/25 05:51:04;;;;;;;7.68;1.80;;;;;;;8.62;84.63;99900.44;5088298;28;20082;-49
2023/03/25 05:53:32;;;;;;;14.25;1.80;;;;;;;8.57;83.79;99892.22;5080421;28;20054;-50
2023/03/25 05:55:59;;;;;;;11.63;1.95;;;;;;;8.63;84.20;99889.72;5072483;28;20131;-51
2023/03/25 05:58:25;;;;;;;13.60;1.90;;;;;;;8.65;83.08;99897.50;5092149;28;20119;-50
2023/03/25 06:00:53;;;;;;;11.88;1.92;;;;;;;8.56;83.10;99890.53;5083540;28;20048;-48
2023/03/25 06:03:20;;;;;;;8.43;1.77;;;;;;;8.68;82.51;99904.25;5078070;28;20064;-48
2023/03/25 06:05:47;;;;;;;12.68;1.98;;;;;;;8.70;83.43;99899.66;5086498;28;20055;-49
2023/03/25 06:08:15;;;;;;;15.50;2.20;;;;;;;8.69;83.29;99898.00;5092932;28;20443;-51
2023/03/25 06:10:44;;;;;;;13.00;2.13;;;;;;;8.74;83.31;99904.44;5085918;28;20054;-52
2023/03/25 06:13:11;;;;;;;10.63;2.00;;;;;;;8.65;83.58;99908.06;5092536;28;20048;-50
2023/03/25 06:15:40;;;;;;;12.40;2.13;;;;;;;8.57;84.77;99902.78;5087130;28;20043;-48
2023/03/25 06:18:09;;;;;;;11.38;2.28;;;;;;;8.47;87.16;99902.91;5088164;28;20059;-49
2023/03/25 06:20:35;;;;;;;11.98;2.22;;;;;;;8.51;85.27;99898.13;5080652;28;20090;-47
2023/03/25 06:23:02;;;;;;;18.15;2.08;;;;;;;8.41;85.87;99904.34;5085152;28;20044;-49
2023/03/25 06:25:30;;;;;;;10.90;2.05;;;;;;;8.44;86.61;99892.63;5090580;28;20044;-48
2023/03/25 06:28:02;;;;;;;16.75;2.28;;;;;;;8.29;88.31;99900.31;5087300;28;20032;-49
2023/03/25 06:30:29;;;;;;;11.98;2.17;;;;;;;8.31;89.35;99902.81;5092677;28;20054;-50
2023/03/25 06:32:57;;;;;;;14.25;2.10;;;;;;;8.18;91.06;99901.44;5086212;28;20048;-51
2023/03/25 06:35:25;;;;;;;8.75;1.70;;;;;;;8.18;93.02;99906.72;5092756;28;20040;-51
2023/03/25 06:37:52;;;;;;;10.95;2.08;;;;;;;8.10;93.77;99912.00;5090973;28;20272;-51
2023/03/25 06:40:27;;;;;;;13.05;1.95;;;;;;;8.15;95.07;99912.34;5079730;28;20106;-49
2023/03/25 06:42:55;;;;;;;17.60;2.13;;;;;;;8.06;96.02;99905.38;5070363;28;20281;-49
2023/03/25 06:45:42;;;;;;;10.82;2.67;;;;;;;8.19;94.57;99912.84;5081063;28;20044;-48
2023/03/25 06:48:17;;;;;;;9.15;1.77;;;;;;;8.17;94.04;99915.66;5087605;28;20078;-48
2023/03/25 06:50:44;;;;;;;10.35;1.98;;;;;;;8.12;95.52;99930.31;5095385;28;20064;-49
2023/03/25 06:53:11;;;;;;;13.27;2.45;;;;;;;8.04;95.69;99921.38;5090535;28;20070;-49
2023/03/25 06:55:38;;;;;;;12.32;2.70;;;;;;;7.96;95.89;99923.97;5089455;28;20138;-50
2023/03/25 06:58:04;;;;;;;12.48;2.20;;;;;;;8.14;96.03;99912.50;5095428;28;20066;-52
2023/03/25 07:00:31;;;;;;;19.42;2.35;;;;;;;8.22;94.46;99910.72;5090551;28;20052;-51
2023/03/25 07:02:58;;;;;;;17.20;2.30;;;;;;;8.20;93.90;99906.56;5094885;28;20048;-50
2023/03/25 07:05:25;;;;;;;13.02;2.30;;;;;;;8.12;94.96;99912.66;5084904;28;20040;-49
2023/03/25 07:07:52;;;;;;;16.58;2.47;;;;;;;8.26;95.57;99919.97;5092144;28;20109;-50
2023/03/25 07:10:19;;;;;;;10.05;2.17;;;;;;;8.22;93.08;99918.66;5086200;28;20032;-49
2023/03/25 07:12:46;;;;;;;14.00;2.50;;;;;;;8.23;93.52;99922.13;5087341;28;20397;-51
2023/03/25 07:15:14;;;;;;;14.23;2.80;;;;;;;8.38;93.78;99914.41;5090631;28;20429;-50
2023/03/25 07:17:43;;;;;;;10.30;2.25;;;;;;;8.53;91.72;99910.19;5094525;28;20040;-48
2023/03/25 07:20:10;;;;;;;11.45;2.22;;;;;;;8.65;90.39;99918.66;5090787;28;20052;-50
2023/03/25 07:22:38;;;;;;;15.45;2.15;;;;;;;8.67;88.93;99916.66;5084426;28;20052;-50
2023/03/25 07:25:06;;;;;;;10.13;2.00;;;;;;;8.73;89.32;99926.63;5081538;28;20067;-47
2023/03/25 07:27:32;;;;;;;12.07;2.25;;;;;;;8.70;86.61;99903.13;5080690;28;20032;-48
2023/03/25 07:30:07;;;;;;;12.65;2.28;;;;;;;8.74;85.30;99922.16;5095464;28;20048;-48
2023/03/25 07:32:34;;;;;;;16.10;2.95;;;;;;;8.77;85.18;99925.28;5073670;28;20071;-48
2023/03/25 07:35:02;;;;;;;10.85;2.35;;;;;;;8.69;84.86;99917.31;5094599;28;20039;-46
2023/03/25 07:37:29;;;;;;;11.63;2.33;;;;;;;8.78;84.71;99931.41;5085987;28;20139;-47
2023/03/25 07:39:56;;;;;;;11.32;2.20;;;;;;;8.79;84.92;99931.25;5092395;28;20064;-48
2023/03/25 07:42:24;;;;;;;15.02;2.08;;;;;;;8.78;84.58;99931.41;5084220;28;20055;-55
2023/03/25 07:45:01;;;;;;;14.57;3.05;;;;;;;8.78;85.03;99934.03;5085389;28;20437;-49
2023/03/25 07:47:29;;;;;;;18.13;2.40;;;;;;;8.83;84.74;99929.09;5068735;28;20045;-50
2023/03/25 07:49:56;;;;;;;14.30;2.28;;;;;;;8.81;83.74;99925.78;5053919;28;22174;-52
2023/03/25 07:52:22;;;;;;;12.32;2.78;;;;;;;8.81;84.70;99928.44;5073671;28;20122;-48
2023/03/25 07:54:49;;;;;;;17.35;2.60;;;;;;;8.73;84.00;99929.25;5054753;28;20110;-48
2023/03/25 07:57:18;;;;;;;10.48;2.30;;;;;;;8.74;83.97;99930.06;5066171;28;20090;-49
2023/03/25 07:59:47;;;;;;;18.27;2.40;;;;;;;8.74;83.81;99927.44;5065614;28;20047;-50
2023/03/25 08:02:14;;;;;;;19.05;2.60;;;;;;;8.67;83.11;99937.00;5072560;28;20048;-49
2023/03/25 08:04:42;;;;;;;19.77;3.03;;;;;;;8.73;84.97;99931.06;5069486;28;20630;-49
2023/03/25 08:07:09;;;;;;;11.98;2.17;;;;;;;8.71;83.75;99940.97;5072060;28;20512;-49
2023/03/25 08:09:36;;;;;;;19.35;2.40;;;;;;;8.84;83.33;99944.81;5059971;28;20110;-48
2023/03/25 08:12:03;;;;;;;19.30;2.72;;;;;;;8.92;82.74;99941.34;5067728;28;21023;-49
2023/03/25 08:14:29;;;;;;;15.77;3.20;;;;;;;9.13;81.99;99940.91;5068274;28;20052;-48
2023/03/25 08:16:56;;;;;;;21.50;5.78;;;;;;;9.35;81.87;99949.16;5064396;28;20044;-49
2023/03/25 08:19:23;;;;;;;19.85;3.75;;;;;;;9.30;81.35;99948.84;5070028;28;20036;-50
2023/03/25 08:21:49;;;;;;;16.23;3.58;;;;;;;9.45;80.31;99944.53;5069247;28;20049;-50
2023/03/25 08:24:16;;;;;;;22.90;3.30;;;;;;;9.34;80.40;99958.91;5072048;28;20041;-50
2023/03/25 08:26:43;;;;;;;14.40;3.00;;;;;;;9.38;79.56;99956.78;5062670;28;20041;-50
2023/03/25 08:29:10;;;;;;;14.80;3.25;;;;;;;9.45;79.99;99963.06;5069581;28;20028;-49
2023/03/25 08:31:37;;;;;;;16.33;2.92;;;;;;;9.60;78.91;99965.84;5064134;28;20041;-50
2023/03/25 08:34:04;;;;;;;16.13;3.25;;;;;;;9.61;78.20;99970.19;5065664;28;20119;-49
2023/03/25 08:36:31;;;;;;;11.73;2.17;;;;;;;9.47;77.93;99973.50;5050708;28;20056;-50
2023/03/25 08:38:58;;;;;;;17.40;3.75;;;;;;;9.59;78.14;99969.53;5060775;28;20041;-50
2023/03/25 08:41:25;;;;;;;12.35;2.70;;;;;;;9.54;79.19;99971.84;5035625;28;20049;-54
2023/03/25 08:43:52;;;;;;;18.95;3.25;;;;;;;9.54;80.25;99951.47;5064938;28;20044;-56
2023/03/25 08:46:19;;;;;;;19.50;2.58;;;;;;;9.45;77.89;99968.34;5062564;28;20118;-49
2023/03/25 08:48:47;;;;;;;20.52;2.70;;;;;;;9.51;78.13;99972.16;5027565;28;20399;-49
2023/03/25 08:51:14;;;;;;;20.25;6.55;;;;;;;9.53;77.52;99975.47;5069512;28;20076;-49
2023/03/25 08:53:41;;;;;;;16.90;3.03;;;;;;;9.38;77.35;99965.53;5065789;28;20040;-50
2023/03/25 08:56:09;;;;;;;13.55;2.40;;;;;;;9.60;77.56;99972.00;5070084;28;20037;-51
2023/03/25 08:58:36;;;;;;;18.95;2.38;;;;;;;9.74;76.81;99962.53;5053698;28;20478;-53
2023/03/25 09:01:05;;;;;;;10.95;2.25;;;;;;;9.78;76.03;99977.09;5067496;28;20043;-50
2023/03/25 09:03:32;;;;;;;19.10;2.78;;;;;;;9.96;75.96;99974.25;5064057;28;20124;-52
2023/03/25 09:06:04;;;;;;;16.40;2.40;;;;;;;9.98;75.20;99968.78;5068626;28;20132;-50
2023/03/25 09:08:32;;;;;;;17.95;2.78;;;;;;;10.00;74.68;99966.78;5064970;28;20041;-53
2023/03/25 09:10:59;;;;;;;14.05;2.78;;;;;;;9.79;75.32;99968.16;5067578;28;20124;-49
2023/03/25 09:13:26;;;;;;;17.55;2.83;;;;;;;9.74;75.80;99986.38;5052296;28;20067;-52
2023/03/25 09:15:53;;;;;;;16.33;2.45;;;;;;;9.79;75.96;99960.22;5055755;28;20182;-56
2023/03/25 09:18:20;;;;;;;9.80;2.47;;;;;;;9.77;74.88;99977.28;5061016;28;20048;-51
2023/03/25 09:20:47;;;;;;;17.70;2.42;;;;;;;9.70;76.27;99971.81;5047905;28;20131;-49
2023/03/25 09:23:14;;;;;;;13.80;2.67;;;;;;;9.83;75.87;99966.00;5065076;28;20041;-49
2023/03/25 09:25:41;;;;;;;18.88;3.00;;;;;;;9.94;75.70;99972.78;5055770;28;20109;-52
2023/03/25 09:28:09;;;;;;;18.77;3.15;;;;;;;10.09;74.58;99962.31;5070669;28;20121;-49
2023/03/25 09:30:37;;;;;;;17.05;2.90;;;;;;;10.08;73.48;99964.16;5064130;28;20398;-50
2023/03/25 09:33:05;;;;;;;13.13;2.60;;;;;;;10.17;73.32;99968.41;5071579;28;21545;-48
2023/03/25 09:35:32;;;;;;;13.20;2.60;;;;;;;10.14;72.41;99952.03;5061726;28;20052;-48
2023/03/25 09:37:59;;;;;;;15.93;2.85;;;;;;;10.11;72.34;99969.09;5068024;28;20069;-47
2023/03/25 09:40:27;;;;;;;20.02;3.05;;;;;;;10.07;73.05;99974.91;5065590;28;20033;-52
2023/03/25 09:43:05;;;;;;;20.02;2.83;;;;;;;10.16;72.21;99974.72;5064356;28;20172;-51
2023/03/25 09:45:40;;;;;;;17.58;2.80;;;;;;;10.25;72.23;99967.56;5052802;28;20144;-52
2023/03/25 09:48:31;;;;;;;20.70;3.08;;;;;;;10.46;71.13;99982.09;5066556;28;20033;-49
2023/03/25 09:51:04;;;;;;;19.23;2.50;;;;;;;10.26;72.04;99976.34;5063989;28;20053;-51
2023/03/25 09:53:42;;;;;;;17.38;2.45;;;;;;;10.28;71.50;100017.59;5068678;28;20044;-50
2023/03/25 09:56:15;;;;;;;23.00;2.47;;;;;;;10.18;71.21;99977.19;5062797;28;20094;-51
2023/03/25 09:58:49;;;;;;;15.38;2.10;;;;;;;10.19;71.95;99978.84;5051293;28;20504;-50
2023/03/25 10:01:36;;;;;;;17.02;2.35;;;;;;;10.29;72.34;99976.00;5038671;28;20042;-51
2023/03/25 10:04:36;;;;;;;11.63;2.15;;;;;;;10.17;71.22;99979.03;5067134;28;20064;-52
2023/03/25 10:07:31;;;;;;;17.20;2.40;;;;;;;10.15;71.65;99975.72;5063216;28;20045;-50
2023/03/25 10:10:39;;;;;;;18.20;2.35;;;;;;;10.21;72.71;99995.41;5070559;28;20060;-54
2023/03/25 10:13:21;;;;;;;19.42;2.60;;;;;;;10.25;72.69;100044.44;5066212;28;20051;-51
2023/03/25 10:15:58;;;;;;;8.88;2.00;;;;;;;10.25;71.12;99991.41;5069956;28;20047;-50
2023/03/25 10:18:57;;;;;;;14.40;2.30;;;;;;;10.46;71.79;99982.09;5068745;28;20115;-49
2023/03/25 10:24:22;;;;;;;14.57;2.83;;;;;;;10.92;69.49;99988.34;5090007;27;20397;-50
2023/03/25 10:27:04;;;;;;;12.18;2.20;;;;;;;11.31;67.26;99990.09;5079565;28;20052;-49
2023/03/25 10:29:41;;;;;;;23.55;3.08;;;;;;;11.09;68.41;99991.72;5070724;28;20239;-51
2023/03/25 10:32:16;;;;;;;16.95;2.70;;;;;;;10.67;69.56;99995.59;5089651;28;20482;-48
2023/03/25 10:34:48;;;;;;;18.83;2.40;;;;;;;10.55;71.20;100012.88;5086714;28;20592;-50
2023/03/25 10:37:29;;;;;;;13.48;2.60;;;;;;;10.35;71.58;100005.34;5080904;28;20464;-50
2023/03/25 10:40:11;;;;;;;16.67;2.40;;;;;;;10.41;71.34;100000.38;5086360;28;20047;-51
2023/03/25 10:42:46;;;;;;;21.42;2.78;;;;;;;10.33;71.13;99996.75;5076383;28;20036;-52
2023/03/25 10:45:17;;;;;;;16.92;2.47;;;;;;;10.48;70.45;100004.81;5067992;28;20422;-50
2023/03/25 10:47:46;;;;;;;19.98;2.95;;;;;;;10.40;70.78;100006.66;5088796;28;20044;-53
2023/03/25 10:50:16;;;;;;;19.40;2.83;;;;;;;10.66;70.68;100006.38;5098208;28;20047;-52
2023/03/25 10:52:45;;;;;;;16.17;2.95;;;;;;;11.01;69.99;100001.59;5086588;28;20440;-52
2023/03/25 10:55:22;;;;;;;17.05;2.65;;;;;;;11.42;68.93;99996.00;5080934;28;20051;-51
2023/03/25 10:57:50;;;;;;;10.88;2.25;;;;;;;11.20;68.66;99995.81;5092808;28;20482;-51
2023/03/25 11:00:18;;;;;;;15.13;2.92;;;;;;;11.29;70.90;99991.28;5078057;28;20162;-52
2023/03/25 11:02:46;;;;;;;17.55;3.13;;;;;;;11.31;70.49;99981.28;5091887;28;20473;-52
2023/03/25 11:05:17;;;;;;;19.70;2.65;;;;;;;11.41;68.43;99997.81;5095813;28;20043;-51
2023/03/25 11:07:52;;;;;;;20.63;3.03;;;;;;;11.67;69.46;99988.66;5095437;28;20102;-53
2023/03/25 11:13:02;;;;;;;15.30;3.15;;;;;;;11.95;65.44;99988.94;5111964;27;20400;-52
2023/03/25 11:15:32;;;;;;;12.85;2.33;;;;;;;11.77;65.19;99991.03;5090615;27;20735;-51
2023/03/25 11:18:05;;;;;;;11.27;2.30;;;;;;;11.45;66.10;99985.84;5107352;28;20127;-52
2023/03/25 11:20:36;;;;;;;;;;;;;;;11.14;67.53;99978.75;5104206;28;20595;-52
2023/03/25 11:23:15;;;;;;;16.67;2.85;;;;;;;11.14;69.00;99993.88;5103393;28;20367;-52
2023/03/25 11:25:42;;;;;;;15.85;3.28;;;;;;;11.29;68.49;99978.81;5098633;28;20275;-53
2023/03/25 11:28:16;;;;;;;19.40;3.22;;;;;;;11.11;67.85;99989.75;5104437;28;20461;-52
2023/03/25 11:31:05;;;;;;;13.90;2.65;;;;;;;11.08;69.18;99987.44;5097432;27;20573;-53
2023/03/25 11:33:32;;;;;;;18.40;3.03;;;;;;;11.17;67.25;99984.72;5098305;28;20109;-52
2023/03/25 11:36:11;;;;;;;10.20;2.20;;;;;;;11.59;66.13;99994.00;5100415;27;20044;-52
2023/03/25 11:38:39;;;;;;;9.20;2.20;;;;;;;12.47;62.91;99995.16;5091887;28;20113;-51
2023/03/25 11:41:06;;;;;;;13.73;2.10;;;;;;;12.40;62.95;100012.88;5100504;28;20028;-51
2023/03/25 11:43:37;;;;;;;8.43;1.80;;;;;;;12.11;64.35;100009.19;5121852;27;20123;-51
2023/03/25 11:46:20;;;;;;;9.68;2.53;;;;;;;12.31;64.80;100021.97;5098907;28;20046;-51
2023/03/25 11:48:49;;;;;;;14.10;2.50;;;;;;;12.40;64.58;100011.03;5092597;28;20660;-52
2023/03/25 11:51:23;;;;;;;11.48;2.60;;;;;;;12.17;64.86;100013.81;5106054;28;20052;-51
2023/03/25 11:54:01;;;;;;;9.38;2.60;;;;;;;11.68;66.20;100019.53;5117637;28;20151;-52
2023/03/25 11:56:33;;;;;;;14.25;2.80;;;;;;;11.33;69.00;100021.75;5096974;28;20558;-52
2023/03/25 11:59:02;;;;;;;13.93;2.90;;;;;;;10.91;73.63;100036.28;5091607;28;20563;-51
2023/03/25 12:01:39;;;;;;;18.08;2.67;;;;;;;10.60;77.63;100036.25;5097791;28;20035;-49
2023/03/25 12:04:18;;;;;;;13.23;2.47;;;;;;;10.04;80.53;100044.13;5090086;28;20568;-52